sensor_id;sensor_type;location;lat;lon;timestamp;temperature;humidity
59651;DHT22;45954;49.768;8.636;2023-01-08T00:01:04;11.60;99.90
59651;DHT22;45954;49.768;8.636;2023-01-08T00:03:31;11.70;99.90
59651;DHT22;45954;49.768;8.636;2023-01-08T00:06:00;11.80;99.90
59651;DHT22;45954;49.768;8.636;2023-01-08T00:08:29;11.60;99.90
59651;DHT22;45954;49.768;8.636;2023-01-08T00:10:56;11.70;99.90
59651;DHT22;45954;49.768;8.636;2023-01-08T00:13:22;11.60;99.90
59651;DHT22;45954;49.768;8.636;2023-01-08T00:15:49;11.60;99.90
59651;DHT22;45954;49.768;8.636;2023-01-08T00:18:14;11.60;99.90
59651;DHT22;45954;49.768;8.636;2023-01-08T00:20:41;11.60;99.90
59651;DHT22;45954;49.768;8.636;2023-01-08T00:23:15;11.70;99.90
59651;DHT22;45954;49.768;8.636;2023-01-08T00:25:42;11.60;99.90
59651;DHT22;45954;49.768;8.636;2023-01-08T00:28:08;11.60;99.90
59651;DHT22;45954;49.768;8.636;2023-01-08T00:30:35;11.70;99.90
59651;DHT22;45954;49.768;8.636;2023-01-08T00:33:01;11.60;99.90
59651;DHT22;45954;49.768;8.636;2023-01-08T00:35:27;11.60;99.90
59651;DHT22;45954;49.768;8.636;2023-01-08T00:37:53;11.60;99.90
59651;DHT22;45954;49.768;8.636;2023-01-08T00:40:19;11.70;99.90
59651;DHT22;45954;49.768;8.636;2023-01-08T00:42:45;11.60;99.90
59651;DHT22;45954;49.768;8.636;2023-01-08T00:45:11;11.70;99.90
59651;DHT22;45954;49.768;8.636;2023-01-08T00:47:37;11.60;99.90
59651;DHT22;45954;49.768;8.636;2023-01-08T00:50:03;11.70;99.90
59651;DHT22;45954;49.768;8.636;2023-01-08T00:52:29;11.80;99.90
59651;DHT22;45954;49.768;8.636;2023-01-08T00:54:55;11.70;99.90
59651;DHT22;45954;49.768;8.636;2023-01-08T00:57:21;11.80;99.90
59651;DHT22;45954;49.768;8.636;2023-01-08T00:59:47;11.70;99.90
59651;DHT22;45954;49.768;8.636;2023-01-08T01:02:13;11.80;99.90
59651;DHT22;45954;49.768;8.636;2023-01-08T01:04:39;11.80;99.90
59651;DHT22;45954;49.768;8.636;2023-01-08T01:07:05;11.80;99.90
59651;DHT22;45954;49.768;8.636;2023-01-08T01:09:31;11.80;99.90
59651;DHT22;45954;49.768;8.636;2023-01-08T01:11:56;11.70;99.90
59651;DHT22;45954;49.768;8.636;2023-01-08T01:14:23;11.90;99.90
59651;DHT22;45954;49.768;8.636;2023-01-08T01:16:49;12.00;99.90
59651;DHT22;45954;49.768;8.636;2023-01-08T01:19:16;11.90;99.90
59651;DHT22;45954;49.768;8.636;2023-01-08T01:21:42;11.90;99.90
59651;DHT22;45954;49.768;8.636;2023-01-08T01:24:10;11.90;99.90
59651;DHT22;45954;49.768;8.636;2023-01-08T01:26:38;11.80;99.90
59651;DHT22;45954;49.768;8.636;2023-01-08T01:29:04;11.60;99.90
59651;DHT22;45954;49.768;8.636;2023-01-08T01:31:31;11.70;99.90
59651;DHT22;45954;49.768;8.636;2023-01-08T01:33:58;11.40;99.90
59651;DHT22;45954;49.768;8.636;2023-01-08T01:36:25;11.30;99.90
59651;DHT22;45954;49.768;8.636;2023-01-08T01:38:53;11.30;99.90
59651;DHT22;45954;49.768;8.636;2023-01-08T01:41:34;11.30;99.90
59651;DHT22;45954;49.768;8.636;2023-01-08T01:44:43;11.20;99.90
59651;DHT22;45954;49.768;8.636;2023-01-08T01:47:27;11.30;99.90
59651;DHT22;45954;49.768;8.636;2023-01-08T01:50:16;11.10;99.90
59651;DHT22;45954;49.768;8.636;2023-01-08T01:52:54;11.00;99.90
59651;DHT22;45954;49.768;8.636;2023-01-08T01:55:26;10.90;99.90
59651;DHT22;45954;49.768;8.636;2023-01-08T01:58:05;10.90;99.90
59651;DHT22;45954;49.768;8.636;2023-01-08T02:00:36;11.00;99.90
59651;DHT22;45954;49.768;8.636;2023-01-08T02:03:03;10.80;99.90
59651;DHT22;45954;49.768;8.636;2023-01-08T02:05:49;10.80;99.90
59651;DHT22;45954;49.768;8.636;2023-01-08T02:11:26;10.70;99.90
59651;DHT22;45954;49.768;8.636;2023-01-08T02:14:11;10.70;99.90
59651;DHT22;45954;49.768;8.636;2023-01-08T02:17:07;10.80;99.90
59651;DHT22;45954;49.768;8.636;2023-01-08T02:19:48;10.70;99.90
59651;DHT22;45954;49.768;8.636;2023-01-08T02:28:57;10.70;99.90
59651;DHT22;45954;49.768;8.636;2023-01-08T02:31:27;10.80;99.90
59651;DHT22;45954;49.768;8.636;2023-01-08T02:33:55;10.80;99.90
59651;DHT22;45954;49.768;8.636;2023-01-08T02:36:35;10.80;99.90
59651;DHT22;45954;49.768;8.636;2023-01-08T02:39:14;10.70;99.90
59651;DHT22;45954;49.768;8.636;2023-01-08T02:48:23;10.90;99.90
59651;DHT22;45954;49.768;8.636;2023-01-08T02:51:05;10.90;99.90
59651;DHT22;45954;49.768;8.636;2023-01-08T02:53:41;10.90;99.90
59651;DHT22;45954;49.768;8.636;2023-01-08T02:56:18;10.80;99.90
59651;DHT22;45954;49.768;8.636;2023-01-08T02:58:49;10.80;99.90
59651;DHT22;45954;49.768;8.636;2023-01-08T03:01:19;10.80;99.90
59651;DHT22;45954;49.768;8.636;2023-01-08T03:03:53;10.80;99.90
59651;DHT22;45954;49.768;8.636;2023-01-08T03:06:22;10.80;99.90
59651;DHT22;45954;49.768;8.636;2023-01-08T03:08:51;10.80;99.90
59651;DHT22;45954;49.768;8.636;2023-01-08T03:11:20;10.90;99.90
59651;DHT22;45954;49.768;8.636;2023-01-08T03:13:55;10.80;99.90
59651;DHT22;45954;49.768;8.636;2023-01-08T03:16:51;10.60;99.90
59651;DHT22;45954;49.768;8.636;2023-01-08T03:19:32;10.50;99.90
59651;DHT22;45954;49.768;8.636;2023-01-08T03:22:06;10.50;99.90
59651;DHT22;45954;49.768;8.636;2023-01-08T03:24:38;10.50;99.90
59651;DHT22;45954;49.768;8.636;2023-01-08T03:27:09;10.50;99.90
59651;DHT22;45954;49.768;8.636;2023-01-08T03:29:40;10.60;99.90
59651;DHT22;45954;49.768;8.636;2023-01-08T03:32:12;10.40;99.90
59651;DHT22;45954;49.768;8.636;2023-01-08T03:34:42;10.40;99.90
59651;DHT22;45954;49.768;8.636;2023-01-08T03:37:11;10.40;99.90
59651;DHT22;45954;49.768;8.636;2023-01-08T03:39:45;10.50;99.90
59651;DHT22;45954;49.768;8.636;2023-01-08T03:42:17;10.50;99.90
59651;DHT22;45954;49.768;8.636;2023-01-08T03:44:44;10.50;99.90
59651;DHT22;45954;49.768;8.636;2023-01-08T03:47:11;10.40;99.90
59651;DHT22;45954;49.768;8.636;2023-01-08T03:49:40;10.30;99.90
59651;DHT22;45954;49.768;8.636;2023-01-08T03:52:07;10.30;99.90
59651;DHT22;45954;49.768;8.636;2023-01-08T03:54:35;10.40;99.90
59651;DHT22;45954;49.768;8.636;2023-01-08T03:57:01;10.50;99.90
59651;DHT22;45954;49.768;8.636;2023-01-08T03:59:28;10.50;99.90
59651;DHT22;45954;49.768;8.636;2023-01-08T04:01:53;10.50;99.90
59651;DHT22;45954;49.768;8.636;2023-01-08T04:04:19;10.50;99.90
59651;DHT22;45954;49.768;8.636;2023-01-08T04:06:45;10.40;99.90
59651;DHT22;45954;49.768;8.636;2023-01-08T04:09:11;10.60;99.90
59651;DHT22;45954;49.768;8.636;2023-01-08T04:11:37;10.50;99.90
59651;DHT22;45954;49.768;8.636;2023-01-08T04:14:03;10.50;99.90
59651;DHT22;45954;49.768;8.636;2023-01-08T04:16:28;10.40;99.90
59651;DHT22;45954;49.768;8.636;2023-01-08T04:18:54;10.50;99.90
59651;DHT22;45954;49.768;8.636;2023-01-08T04:21:20;10.50;99.90
59651;DHT22;45954;49.768;8.636;2023-01-08T04:23:47;10.50;99.90
59651;DHT22;45954;49.768;8.636;2023-01-08T04:26:12;10.40;99.90
59651;DHT22;45954;49.768;8.636;2023-01-08T04:28:38;10.50;99.90
59651;DHT22;45954;49.768;8.636;2023-01-08T04:31:08;10.40;99.90
59651;DHT22;45954;49.768;8.636;2023-01-08T04:33:35;10.40;99.90
59651;DHT22;45954;49.768;8.636;2023-01-08T04:36:02;10.40;99.90
59651;DHT22;45954;49.768;8.636;2023-01-08T04:38:28;10.30;99.90
59651;DHT22;45954;49.768;8.636;2023-01-08T04:41:01;10.30;99.90
59651;DHT22;45954;49.768;8.636;2023-01-08T04:43:28;10.30;99.90
59651;DHT22;45954;49.768;8.636;2023-01-08T04:45:59;10.20;99.90
59651;DHT22;45954;49.768;8.636;2023-01-08T04:48:26;10.20;99.90
59651;DHT22;45954;49.768;8.636;2023-01-08T04:50:53;10.10;99.90
59651;DHT22;45954;49.768;8.636;2023-01-08T04:53:19;10.10;99.90
59651;DHT22;45954;49.768;8.636;2023-01-08T04:55:45;10.10;99.90
59651;DHT22;45954;49.768;8.636;2023-01-08T04:58:11;10.20;99.90
59651;DHT22;45954;49.768;8.636;2023-01-08T05:00:38;10.20;99.90
59651;DHT22;45954;49.768;8.636;2023-01-08T05:03:04;10.10;99.90
59651;DHT22;45954;49.768;8.636;2023-01-08T05:05:31;10.10;99.90
59651;DHT22;45954;49.768;8.636;2023-01-08T05:07:58;10.20;99.90
59651;DHT22;45954;49.768;8.636;2023-01-08T05:10:24;10.20;99.90
59651;DHT22;45954;49.768;8.636;2023-01-08T05:12:49;10.10;99.90
59651;DHT22;45954;49.768;8.636;2023-01-08T05:15:15;10.00;99.90
59651;DHT22;45954;49.768;8.636;2023-01-08T05:17:41;10.00;99.90
59651;DHT22;45954;49.768;8.636;2023-01-08T05:20:07;9.90;99.90
59651;DHT22;45954;49.768;8.636;2023-01-08T05:22:34;9.80;99.90
59651;DHT22;45954;49.768;8.636;2023-01-08T05:25:00;9.80;99.90
59651;DHT22;45954;49.768;8.636;2023-01-08T05:27:27;9.80;99.90
59651;DHT22;45954;49.768;8.636;2023-01-08T05:29:53;9.90;99.90
59651;DHT22;45954;49.768;8.636;2023-01-08T05:32:19;9.90;99.90
59651;DHT22;45954;49.768;8.636;2023-01-08T05:34:45;9.80;99.90
59651;DHT22;45954;49.768;8.636;2023-01-08T05:37:11;9.90;99.90
59651;DHT22;45954;49.768;8.636;2023-01-08T05:39:37;9.90;99.90
59651;DHT22;45954;49.768;8.636;2023-01-08T05:42:03;9.90;99.90
59651;DHT22;45954;49.768;8.636;2023-01-08T05:44:30;9.80;99.90
59651;DHT22;45954;49.768;8.636;2023-01-08T05:46:55;9.90;99.90
59651;DHT22;45954;49.768;8.636;2023-01-08T05:49:22;9.80;99.90
59651;DHT22;45954;49.768;8.636;2023-01-08T05:51:49;9.80;99.90
59651;DHT22;45954;49.768;8.636;2023-01-08T05:54:15;9.80;99.90
59651;DHT22;45954;49.768;8.636;2023-01-08T05:56:42;9.70;99.90
59651;DHT22;45954;49.768;8.636;2023-01-08T05:59:11;9.70;99.90
59651;DHT22;45954;49.768;8.636;2023-01-08T06:01:37;9.70;99.90
59651;DHT22;45954;49.768;8.636;2023-01-08T06:04:03;9.70;99.90
59651;DHT22;45954;49.768;8.636;2023-01-08T06:06:28;9.70;99.90
59651;DHT22;45954;49.768;8.636;2023-01-08T06:08:54;9.60;99.90
59651;DHT22;45954;49.768;8.636;2023-01-08T06:11:20;9.70;99.90
59651;DHT22;45954;49.768;8.636;2023-01-08T06:13:46;9.60;99.90
59651;DHT22;45954;49.768;8.636;2023-01-08T06:16:12;9.50;99.90
59651;DHT22;45954;49.768;8.636;2023-01-08T06:18:38;9.50;99.90
59651;DHT22;45954;49.768;8.636;2023-01-08T06:21:04;9.50;99.90
59651;DHT22;45954;49.768;8.636;2023-01-08T06:23:31;9.50;99.90
59651;DHT22;45954;49.768;8.636;2023-01-08T06:25:59;9.40;99.90
59651;DHT22;45954;49.768;8.636;2023-01-08T06:28:26;9.50;99.90
59651;DHT22;45954;49.768;8.636;2023-01-08T06:30:52;9.40;99.90
59651;DHT22;45954;49.768;8.636;2023-01-08T06:33:19;9.60;99.90
59651;DHT22;45954;49.768;8.636;2023-01-08T06:35:45;9.70;99.90
59651;DHT22;45954;49.768;8.636;2023-01-08T06:38:10;9.60;99.90
59651;DHT22;45954;49.768;8.636;2023-01-08T06:40:36;9.70;99.90
59651;DHT22;45954;49.768;8.636;2023-01-08T06:43:04;9.70;99.90
59651;DHT22;45954;49.768;8.636;2023-01-08T06:45:30;9.80;99.90
59651;DHT22;45954;49.768;8.636;2023-01-08T06:48:01;9.80;99.90
59651;DHT22;45954;49.768;8.636;2023-01-08T06:50:28;9.80;99.90
59651;DHT22;45954;49.768;8.636;2023-01-08T06:52:55;9.80;99.90
59651;DHT22;45954;49.768;8.636;2023-01-08T06:55:22;9.80;99.90
59651;DHT22;45954;49.768;8.636;2023-01-08T06:57:56;9.80;99.90
59651;DHT22;45954;49.768;8.636;2023-01-08T07:00:24;9.80;99.90
59651;DHT22;45954;49.768;8.636;2023-01-08T07:02:54;9.80;99.90
59651;DHT22;45954;49.768;8.636;2023-01-08T07:05:21;9.70;99.90
59651;DHT22;45954;49.768;8.636;2023-01-08T07:07:47;9.70;99.90
59651;DHT22;45954;49.768;8.636;2023-01-08T07:10:14;9.60;99.90
59651;DHT22;45954;49.768;8.636;2023-01-08T07:12:40;9.50;99.90
59651;DHT22;45954;49.768;8.636;2023-01-08T07:15:06;9.50;99.90
59651;DHT22;45954;49.768;8.636;2023-01-08T07:17:32;9.50;99.90
59651;DHT22;45954;49.768;8.636;2023-01-08T07:19:58;9.60;99.90
59651;DHT22;45954;49.768;8.636;2023-01-08T07:22:24;9.60;99.90
59651;DHT22;45954;49.768;8.636;2023-01-08T07:24:51;9.70;99.90
59651;DHT22;45954;49.768;8.636;2023-01-08T07:27:17;9.60;99.90
59651;DHT22;45954;49.768;8.636;2023-01-08T07:29:43;9.70;99.90
59651;DHT22;45954;49.768;8.636;2023-01-08T07:32:09;9.60;99.90
59651;DHT22;45954;49.768;8.636;2023-01-08T07:34:35;9.70;99.90
59651;DHT22;45954;49.768;8.636;2023-01-08T07:37:02;9.60;99.90
59651;DHT22;45954;49.768;8.636;2023-01-08T07:39:28;9.70;99.90
59651;DHT22;45954;49.768;8.636;2023-01-08T07:41:54;9.70;99.90
59651;DHT22;45954;49.768;8.636;2023-01-08T07:44:19;9.60;99.90
59651;DHT22;45954;49.768;8.636;2023-01-08T07:46:45;9.60;99.90
59651;DHT22;45954;49.768;8.636;2023-01-08T07:49:11;9.60;99.90
59651;DHT22;45954;49.768;8.636;2023-01-08T07:51:37;9.60;99.90
59651;DHT22;45954;49.768;8.636;2023-01-08T07:54:03;9.50;99.90
59651;DHT22;45954;49.768;8.636;2023-01-08T07:56:29;9.60;99.90
59651;DHT22;45954;49.768;8.636;2023-01-08T07:58:55;9.50;99.90
59651;DHT22;45954;49.768;8.636;2023-01-08T08:01:21;9.40;99.90
59651;DHT22;45954;49.768;8.636;2023-01-08T08:03:47;9.50;99.90
59651;DHT22;45954;49.768;8.636;2023-01-08T08:06:13;9.50;99.90
59651;DHT22;45954;49.768;8.636;2023-01-08T08:08:39;9.50;99.90
59651;DHT22;45954;49.768;8.636;2023-01-08T08:11:05;9.50;99.90
59651;DHT22;45954;49.768;8.636;2023-01-08T08:13:30;9.40;99.90
59651;DHT22;45954;49.768;8.636;2023-01-08T08:16:04;9.50;99.90
59651;DHT22;45954;49.768;8.636;2023-01-08T08:18:30;9.50;99.90
59651;DHT22;45954;49.768;8.636;2023-01-08T08:20:56;9.50;99.90
59651;DHT22;45954;49.768;8.636;2023-01-08T08:23:22;9.50;99.90
59651;DHT22;45954;49.768;8.636;2023-01-08T08:25:48;9.50;99.90
59651;DHT22;45954;49.768;8.636;2023-01-08T08:28:16;9.40;99.90
59651;DHT22;45954;49.768;8.636;2023-01-08T08:30:43;9.40;99.90
59651;DHT22;45954;49.768;8.636;2023-01-08T08:33:09;9.40;99.90
59651;DHT22;45954;49.768;8.636;2023-01-08T08:35:36;9.40;99.90
59651;DHT22;45954;49.768;8.636;2023-01-08T08:38:03;9.40;99.90
59651;DHT22;45954;49.768;8.636;2023-01-08T08:40:29;9.40;99.90
59651;DHT22;45954;49.768;8.636;2023-01-08T08:42:57;9.40;99.90
59651;DHT22;45954;49.768;8.636;2023-01-08T08:45:25;9.40;99.90
59651;DHT22;45954;49.768;8.636;2023-01-08T08:47:52;9.30;99.90
59651;DHT22;45954;49.768;8.636;2023-01-08T08:50:18;9.40;99.90
59651;DHT22;45954;49.768;8.636;2023-01-08T08:52:44;9.50;99.90
59651;DHT22;45954;49.768;8.636;2023-01-08T08:55:11;9.40;99.90
59651;DHT22;45954;49.768;8.636;2023-01-08T08:57:41;9.30;99.90
59651;DHT22;45954;49.768;8.636;2023-01-08T09:00:12;9.30;99.90
59651;DHT22;45954;49.768;8.636;2023-01-08T09:02:38;9.40;99.90
59651;DHT22;45954;49.768;8.636;2023-01-08T09:05:05;9.30;99.90
59651;DHT22;45954;49.768;8.636;2023-01-08T09:07:32;9.30;99.90
59651;DHT22;45954;49.768;8.636;2023-01-08T09:09:57;9.30;99.90
59651;DHT22;45954;49.768;8.636;2023-01-08T09:12:23;9.30;99.90
59651;DHT22;45954;49.768;8.636;2023-01-08T09:14:49;9.30;99.90
59651;DHT22;45954;49.768;8.636;2023-01-08T09:17:16;9.40;99.90
59651;DHT22;45954;49.768;8.636;2023-01-08T09:19:42;9.40;99.90
59651;DHT22;45954;49.768;8.636;2023-01-08T09:22:08;9.30;99.90
59651;DHT22;45954;49.768;8.636;2023-01-08T09:24:34;9.30;99.90
59651;DHT22;45954;49.768;8.636;2023-01-08T09:27:00;9.30;99.90
59651;DHT22;45954;49.768;8.636;2023-01-08T09:29:26;9.40;99.90
59651;DHT22;45954;49.768;8.636;2023-01-08T09:31:52;9.40;99.90
59651;DHT22;45954;49.768;8.636;2023-01-08T09:34:18;9.40;99.90
59651;DHT22;45954;49.768;8.636;2023-01-08T09:36:43;9.50;99.90
59651;DHT22;45954;49.768;8.636;2023-01-08T09:39:09;9.40;99.90
59651;DHT22;45954;49.768;8.636;2023-01-08T09:41:40;9.40;99.90
59651;DHT22;45954;49.768;8.636;2023-01-08T09:44:19;9.40;99.90
59651;DHT22;45954;49.768;8.636;2023-01-08T09:46:49;9.50;99.90
59651;DHT22;45954;49.768;8.636;2023-01-08T09:49:21;9.50;99.90
59651;DHT22;45954;49.768;8.636;2023-01-08T09:51:53;9.60;99.90
59651;DHT22;45954;49.768;8.636;2023-01-08T09:54:24;9.50;99.90
59651;DHT22;45954;49.768;8.636;2023-01-08T09:56:51;9.60;99.90
59651;DHT22;45954;49.768;8.636;2023-01-08T09:59:18;9.60;99.90
59651;DHT22;45954;49.768;8.636;2023-01-08T10:01:46;9.70;99.90
59651;DHT22;45954;49.768;8.636;2023-01-08T10:04:24;9.70;99.90
59651;DHT22;45954;49.768;8.636;2023-01-08T10:06:57;9.70;99.90
59651;DHT22;45954;49.768;8.636;2023-01-08T10:09:30;9.70;99.90
59651;DHT22;45954;49.768;8.636;2023-01-08T10:12:00;9.70;99.90
59651;DHT22;45954;49.768;8.636;2023-01-08T10:14:32;9.80;99.90
59651;DHT22;45954;49.768;8.636;2023-01-08T10:17:11;9.80;99.90
59651;DHT22;45954;49.768;8.636;2023-01-08T10:19:45;9.70;99.90
59651;DHT22;45954;49.768;8.636;2023-01-08T10:22:17;9.70;99.90
59651;DHT22;45954;49.768;8.636;2023-01-08T10:24:45;9.80;99.90
59651;DHT22;45954;49.768;8.636;2023-01-08T10:27:22;9.90;99.90
59651;DHT22;45954;49.768;8.636;2023-01-08T10:29:51;9.90;99.90
59651;DHT22;45954;49.768;8.636;2023-01-08T10:32:29;9.80;99.90
59651;DHT22;45954;49.768;8.636;2023-01-08T10:35:03;9.80;99.90
59651;DHT22;45954;49.768;8.636;2023-01-08T10:37:37;9.70;99.90
59651;DHT22;45954;49.768;8.636;2023-01-08T10:40:29;9.80;99.90
59651;DHT22;45954;49.768;8.636;2023-01-08T10:43:27;9.80;99.90
59651;DHT22;45954;49.768;8.636;2023-01-08T10:46:13;9.80;99.90
59651;DHT22;45954;49.768;8.636;2023-01-08T10:48:50;9.80;99.90
59651;DHT22;45954;49.768;8.636;2023-01-08T10:51:24;9.80;99.90
59651;DHT22;45954;49.768;8.636;2023-01-08T10:53:54;9.90;99.90
59651;DHT22;45954;49.768;8.636;2023-01-08T10:56:29;9.90;99.90
59651;DHT22;45954;49.768;8.636;2023-01-08T10:58:57;9.90;99.90
59651;DHT22;45954;49.768;8.636;2023-01-08T11:01:26;9.90;99.90
59651;DHT22;45954;49.768;8.636;2023-01-08T11:04:00;10.00;99.90
59651;DHT22;45954;49.768;8.636;2023-01-08T11:06:42;10.10;99.90
59651;DHT22;45954;49.768;8.636;2023-01-08T11:09:21;10.30;99.90
59651;DHT22;45954;49.768;8.636;2023-01-08T11:11:49;10.40;99.90
59651;DHT22;45954;49.768;8.636;2023-01-08T11:14:35;10.60;99.90
59651;DHT22;45954;49.768;8.636;2023-01-08T11:17:08;10.60;99.90
59651;DHT22;45954;49.768;8.636;2023-01-08T11:19:35;10.70;99.90
59651;DHT22;45954;49.768;8.636;2023-01-08T11:22:04;10.70;99.90
59651;DHT22;45954;49.768;8.636;2023-01-08T11:24:40;10.70;99.90
59651;DHT22;45954;49.768;8.636;2023-01-08T11:27:23;10.60;99.90
59651;DHT22;45954;49.768;8.636;2023-01-08T11:30:14;10.70;99.90
59651;DHT22;45954;49.768;8.636;2023-01-08T11:33:05;10.80;99.90
59651;DHT22;45954;49.768;8.636;2023-01-08T11:38:05;10.70;99.90
59651;DHT22;45954;49.768;8.636;2023-01-08T11:55:20;10.90;99.90
59651;DHT22;45954;49.768;8.636;2023-01-08T11:58:44;10.90;99.90
59651;DHT22;45954;49.768;8.636;2023-01-08T12:01:18;10.90;99.90
59651;DHT22;45954;49.768;8.636;2023-01-08T12:04:27;10.80;99.90
59651;DHT22;45954;49.768;8.636;2023-01-08T12:07:24;11.00;99.90
59651;DHT22;45954;49.768;8.636;2023-01-08T12:10:27;10.80;99.90
59651;DHT22;45954;49.768;8.636;2023-01-08T12:25:34;10.60;99.90
59651;DHT22;45954;49.768;8.636;2023-01-08T12:32:05;10.80;99.90
59651;DHT22;45954;49.768;8.636;2023-01-08T12:34:44;10.90;99.90
59651;DHT22;45954;49.768;8.636;2023-01-08T12:37:18;10.70;99.90
59651;DHT22;45954;49.768;8.636;2023-01-08T12:42:42;10.90;99.90
59651;DHT22;45954;49.768;8.636;2023-01-08T12:45:16;10.90;99.90
59651;DHT22;45954;49.768;8.636;2023-01-08T12:48:09;10.90;99.90
59651;DHT22;45954;49.768;8.636;2023-01-08T12:54:08;10.90;99.90
59651;DHT22;45954;49.768;8.636;2023-01-08T12:57:12;10.90;99.90
59651;DHT22;45954;49.768;8.636;2023-01-08T13:00:16;10.70;99.90
59651;DHT22;45954;49.768;8.636;2023-01-08T13:02:49;10.80;99.90
59651;DHT22;45954;49.768;8.636;2023-01-08T13:07:53;10.80;99.90
59651;DHT22;45954;49.768;8.636;2023-01-08T13:10:34;10.90;99.90
59651;DHT22;45954;49.768;8.636;2023-01-08T13:18:39;11.00;99.90
59651;DHT22;45954;49.768;8.636;2023-01-08T13:21:10;11.00;99.90
59651;DHT22;45954;49.768;8.636;2023-01-08T13:23:36;11.00;99.90
59651;DHT22;45954;49.768;8.636;2023-01-08T13:26:05;11.00;99.90
59651;DHT22;45954;49.768;8.636;2023-01-08T13:31:26;10.90;99.90
59651;DHT22;45954;49.768;8.636;2023-01-08T13:33:54;10.90;99.90
59651;DHT22;45954;49.768;8.636;2023-01-08T13:36:29;10.80;99.90
59651;DHT22;45954;49.768;8.636;2023-01-08T13:39:00;10.80;99.90
59651;DHT22;45954;49.768;8.636;2023-01-08T13:41:37;10.90;99.90
59651;DHT22;45954;49.768;8.636;2023-01-08T13:44:23;10.90;99.90
59651;DHT22;45954;49.768;8.636;2023-01-08T13:46:55;10.90;99.90
59651;DHT22;45954;49.768;8.636;2023-01-08T13:55:30;11.00;99.90
59651;DHT22;45954;49.768;8.636;2023-01-08T13:58:25;10.90;99.90
59651;DHT22;45954;49.768;8.636;2023-01-08T14:00:54;11.00;99.90
59651;DHT22;45954;49.768;8.636;2023-01-08T14:03:29;11.00;99.90
59651;DHT22;45954;49.768;8.636;2023-01-08T14:06:14;11.00;99.90
59651;DHT22;45954;49.768;8.636;2023-01-08T14:08:58;11.00;99.90
59651;DHT22;45954;49.768;8.636;2023-01-08T14:11:43;11.00;99.90
59651;DHT22;45954;49.768;8.636;2023-01-08T14:14:17;11.00;99.90
59651;DHT22;45954;49.768;8.636;2023-01-08T14:16:47;11.00;99.90
59651;DHT22;45954;49.768;8.636;2023-01-08T14:19:17;11.00;99.90
59651;DHT22;45954;49.768;8.636;2023-01-08T14:21:50;11.00;99.90
59651;DHT22;45954;49.768;8.636;2023-01-08T14:24:21;10.90;99.90
59651;DHT22;45954;49.768;8.636;2023-01-08T14:26:56;10.80;99.90
59651;DHT22;45954;49.768;8.636;2023-01-08T14:29:26;10.70;99.90
59651;DHT22;45954;49.768;8.636;2023-01-08T14:31:57;10.70;99.90
59651;DHT22;45954;49.768;8.636;2023-01-08T14:34:30;10.80;99.90
59651;DHT22;45954;49.768;8.636;2023-01-08T14:36:56;10.70;99.90
59651;DHT22;45954;49.768;8.636;2023-01-08T14:39:31;10.70;99.90
59651;DHT22;45954;49.768;8.636;2023-01-08T14:42:13;10.70;99.90
59651;DHT22;45954;49.768;8.636;2023-01-08T14:45:17;10.70;99.90
59651;DHT22;45954;49.768;8.636;2023-01-08T14:47:48;10.80;99.90
59651;DHT22;45954;49.768;8.636;2023-01-08T14:50:37;10.80;99.90
59651;DHT22;45954;49.768;8.636;2023-01-08T14:53:06;10.80;99.90
59651;DHT22;45954;49.768;8.636;2023-01-08T14:55:37;10.90;99.90
59651;DHT22;45954;49.768;8.636;2023-01-08T14:58:15;10.80;99.90
59651;DHT22;45954;49.768;8.636;2023-01-08T15:00:56;10.80;99.90
59651;DHT22;45954;49.768;8.636;2023-01-08T15:03:37;10.70;99.90
59651;DHT22;45954;49.768;8.636;2023-01-08T15:06:05;10.70;99.90
59651;DHT22;45954;49.768;8.636;2023-01-08T15:08:41;10.60;99.90
59651;DHT22;45954;49.768;8.636;2023-01-08T15:13:44;10.80;99.90
59651;DHT22;45954;49.768;8.636;2023-01-08T15:19:04;10.90;99.90
59651;DHT22;45954;49.768;8.636;2023-01-08T15:21:32;10.80;99.90
59651;DHT22;45954;49.768;8.636;2023-01-08T15:24:01;10.80;99.90
59651;DHT22;45954;49.768;8.636;2023-01-08T15:26:28;10.70;99.90
59651;DHT22;45954;49.768;8.636;2023-01-08T15:28:58;10.80;99.90
59651;DHT22;45954;49.768;8.636;2023-01-08T15:31:44;10.60;99.90
59651;DHT22;45954;49.768;8.636;2023-01-08T15:34:11;10.70;99.90
59651;DHT22;45954;49.768;8.636;2023-01-08T15:36:37;10.60;99.90
59651;DHT22;45954;49.768;8.636;2023-01-08T15:39:04;10.70;99.90
59651;DHT22;45954;49.768;8.636;2023-01-08T15:41:38;10.70;99.90
59651;DHT22;45954;49.768;8.636;2023-01-08T15:44:24;10.80;99.90
59651;DHT22;45954;49.768;8.636;2023-01-08T15:46:51;10.60;99.90
59651;DHT22;45954;49.768;8.636;2023-01-08T15:49:17;10.70;99.90
59651;DHT22;45954;49.768;8.636;2023-01-08T15:51:47;10.60;99.90
59651;DHT22;45954;49.768;8.636;2023-01-08T15:54:14;10.50;99.90
59651;DHT22;45954;49.768;8.636;2023-01-08T15:56:41;10.50;99.90
59651;DHT22;45954;49.768;8.636;2023-01-08T15:59:07;10.60;99.90
59651;DHT22;45954;49.768;8.636;2023-01-08T16:01:33;10.60;99.90
59651;DHT22;45954;49.768;8.636;2023-01-08T16:03:59;10.50;99.90
59651;DHT22;45954;49.768;8.636;2023-01-08T16:06:25;10.50;99.90
59651;DHT22;45954;49.768;8.636;2023-01-08T16:08:51;10.50;99.90
59651;DHT22;45954;49.768;8.636;2023-01-08T16:11:18;10.50;99.90
59651;DHT22;45954;49.768;8.636;2023-01-08T16:13:44;10.50;99.90
59651;DHT22;45954;49.768;8.636;2023-01-08T16:16:13;10.60;99.90
59651;DHT22;45954;49.768;8.636;2023-01-08T16:18:39;10.60;99.90
59651;DHT22;45954;49.768;8.636;2023-01-08T16:21:07;10.60;99.90
59651;DHT22;45954;49.768;8.636;2023-01-08T16:23:36;10.70;99.90
59651;DHT22;45954;49.768;8.636;2023-01-08T16:26:07;10.70;99.90
59651;DHT22;45954;49.768;8.636;2023-01-08T16:28:36;10.70;99.90
59651;DHT22;45954;49.768;8.636;2023-01-08T16:31:02;10.80;99.90
59651;DHT22;45954;49.768;8.636;2023-01-08T16:33:29;10.80;99.90
59651;DHT22;45954;49.768;8.636;2023-01-08T16:36:03;10.90;99.90
59651;DHT22;45954;49.768;8.636;2023-01-08T16:38:31;10.80;99.90
59651;DHT22;45954;49.768;8.636;2023-01-08T16:40:57;10.80;99.90
59651;DHT22;45954;49.768;8.636;2023-01-08T16:43:23;10.80;99.90
59651;DHT22;45954;49.768;8.636;2023-01-08T16:45:50;10.80;99.90
59651;DHT22;45954;49.768;8.636;2023-01-08T16:48:17;10.90;99.90
59651;DHT22;45954;49.768;8.636;2023-01-08T16:50:44;10.80;99.90
59651;DHT22;45954;49.768;8.636;2023-01-08T16:53:11;10.90;99.90
59651;DHT22;45954;49.768;8.636;2023-01-08T16:55:38;11.00;99.90
59651;DHT22;45954;49.768;8.636;2023-01-08T16:58:06;10.80;99.90
59651;DHT22;45954;49.768;8.636;2023-01-08T17:00:34;10.80;99.90
59651;DHT22;45954;49.768;8.636;2023-01-08T17:03:03;10.80;99.90
59651;DHT22;45954;49.768;8.636;2023-01-08T17:05:30;10.80;99.90
59651;DHT22;45954;49.768;8.636;2023-01-08T17:07:56;10.70;99.90
59651;DHT22;45954;49.768;8.636;2023-01-08T17:10:24;10.80;99.90
59651;DHT22;45954;49.768;8.636;2023-01-08T17:12:51;10.80;99.90
59651;DHT22;45954;49.768;8.636;2023-01-08T17:15:17;10.80;99.90
59651;DHT22;45954;49.768;8.636;2023-01-08T17:17:43;10.90;99.90